Time;durP1;ratioP1;P1;durP2;ratioP2;P2;SDS_P1;SDS_P2;PMS_P1;PMS_P2;Temp;Humidity;BMP_temperature;BMP_pressure;BME280_temperature;BME280_humidity;BME280_pressure;Samples;Min_cycle;Max_cycle;Signal;HPM_P1;HPM_P2
2022/04/19 00:01:18;;;;;;;2.17;1.85;;;;;;;;;;5094434;28;20307;-82
2022/04/19 00:03:46;;;;;;;1.70;1.60;;;;;;;;;;5095258;28;20629;-82
2022/04/19 00:06:14;;;;;;;1.92;1.83;;;;;;;;;;5095422;28;20204;-81
2022/04/19 00:08:41;;;;;;;1.90;1.80;;;;;;;;;;5095564;28;20212;-80
2022/04/19 00:11:09;;;;;;;2.35;2.15;;;;;;;;;;5095150;28;20207;-82
2022/04/19 00:13:36;;;;;;;2.50;2.03;;;;;;;;;;5095461;28;20200;-82
2022/04/19 00:16:04;;;;;;;2.10;1.90;;;;;;;;;;5095004;28;20486;-81
2022/04/19 00:18:32;;;;;;;2.13;2.00;;;;;;;;;;5095464;28;20220;-82
2022/04/19 00:21:02;;;;;;;2.38;2.17;;;;;;;;;;5093922;28;20215;-82
2022/04/19 00:23:29;;;;;;;3.25;2.95;;;;;;;;;;5094846;28;20200;-80
2022/04/19 00:25:56;;;;;;;2.40;2.20;;;;;;;;;;5094235;28;20200;-81
2022/04/19 00:28:23;;;;;;;2.10;2.00;;;;;;;;;;5094529;28;20199;-81
2022/04/19 00:30:51;;;;;;;2.20;2.08;;;;;;;;;;5094796;28;20207;-81
2022/04/19 00:33:18;;;;;;;2.03;1.92;;;;;;;;;;5094186;28;20221;-81
2022/04/19 00:35:45;;;;;;;2.13;2.03;;;;;;;;;;5094831;28;20211;-82
2022/04/19 00:38:14;;;;;;;2.33;2.13;;;;;;;;;;5095144;28;20224;-81
2022/04/19 00:40:41;;;;;;;2.00;1.80;;;;;;;;;;5095318;28;20192;-81
2022/04/19 00:43:11;;;;;;;1.48;1.38;;;;;;;;;;5095125;28;20216;-82
2022/04/19 00:45:38;;;;;;;2.17;1.75;;;;;;;;;;5094418;28;20205;-82
2022/04/19 00:48:07;;;;;;;1.85;1.75;;;;;;;;;;5094766;28;20200;-82
2022/04/19 00:50:34;;;;;;;2.22;2.03;;;;;;;;;;5094985;28;20387;-81
2022/04/19 00:53:02;;;;;;;2.30;2.20;;;;;;;;;;5095400;28;20223;-82
2022/04/19 00:55:31;;;;;;;2.22;2.05;;;;;;;;;;5095164;28;20287;-81
2022/04/19 00:57:59;;;;;;;2.30;2.03;;;;;;;;;;5094940;28;20529;-82
2022/04/19 01:00:26;;;;;;;2.63;2.47;;;;;;;;;;5095541;28;20215;-82
2022/04/19 01:02:55;;;;;;;2.30;2.13;;;;;;;;;;5094869;28;20228;-82
2022/04/19 01:05:22;;;;;;;1.90;1.80;;;;;;;;;;5095605;28;20236;-82
2022/04/19 01:07:49;;;;;;;2.58;2.38;;;;;;;;;;5095086;28;20201;-82
2022/04/19 01:10:16;;;;;;;2.65;2.40;;;;;;;;;;5095346;28;20215;-82
2022/04/19 01:15:30;;;;;;;2.33;2.03;;;;;;;;;;5094535;28;20219;-81
2022/04/19 01:18:01;;;;;;;3.20;2.90;;;;;;;;;;5094195;28;20216;-81
2022/04/19 01:20:29;;;;;;;1.83;1.73;;;;;;;;;;5094068;28;20220;-81
2022/04/19 01:22:58;;;;;;;2.08;1.92;;;;;;;;;;5094162;28;20232;-81
2022/04/19 01:25:25;;;;;;;2.20;1.95;;;;;;;;;;5093938;28;20196;-81
2022/04/19 01:27:52;;;;;;;2.55;2.35;;;;;;;;;;5093726;28;20614;-81
2022/04/19 01:30:20;;;;;;;2.60;2.40;;;;;;;;;;5094005;28;20205;-81
2022/04/19 01:32:47;;;;;;;2.58;2.10;;;;;;;;;;5097994;28;20224;-80
2022/04/19 01:35:17;;;;;;;2.30;2.20;;;;;;;;;;5097358;28;20211;-80
2022/04/19 01:37:46;;;;;;;2.40;2.20;;;;;;;;;;5096902;28;20195;-80
2022/04/19 01:40:18;;;;;;;2.20;2.00;;;;;;;;;;5097134;28;20232;-80
2022/04/19 01:42:48;;;;;;;2.60;2.33;;;;;;;;;;5097686;28;20288;-81
2022/04/19 01:45:16;;;;;;;2.35;2.13;;;;;;;;;;5097744;28;20201;-81
2022/04/19 01:47:44;;;;;;;2.22;2.03;;;;;;;;;;5097441;28;20696;-81
2022/04/19 01:50:13;;;;;;;2.47;2.28;;;;;;;;;;5097379;28;20197;-81
2022/04/19 01:52:42;;;;;;;2.67;2.20;;;;;;;;;;5096673;28;20220;-82
2022/04/19 01:55:13;;;;;;;2.63;2.42;;;;;;;;;;5097372;28;20196;-82
2022/04/19 01:57:42;;;;;;;2.10;2.00;;;;;;;;;;5097170;28;20226;-82
2022/04/19 02:00:11;;;;;;;3.00;2.42;;;;;;;;;;5097089;28;20196;-81
2022/04/19 02:02:39;;;;;;;3.90;2.55;;;;;;;;;;5096584;28;20278;-82
2022/04/19 02:05:08;;;;;;;1.98;1.83;;;;;;;;;;5097007;28;20269;-82
2022/04/19 02:07:39;;;;;;;2.55;2.35;;;;;;;;;;5096944;28;20609;-82
2022/04/19 02:10:09;;;;;;;2.15;2.05;;;;;;;;;;5096818;28;20200;-82
2022/04/19 02:12:38;;;;;;;3.15;2.60;;;;;;;;;;5095935;28;20224;-81
2022/04/19 02:15:09;;;;;;;2.30;2.10;;;;;;;;;;5096899;28;20664;-82
2022/04/19 02:17:45;;;;;;;3.35;2.30;;;;;;;;;;5097429;28;20229;-81
2022/04/19 02:20:14;;;;;;;2.35;2.15;;;;;;;;;;5096396;28;20224;-81
2022/04/19 02:22:42;;;;;;;1.92;1.70;;;;;;;;;;5096517;28;20606;-82
2022/04/19 02:25:12;;;;;;;2.92;2.50;;;;;;;;;;5096411;28;20200;-81
2022/04/19 02:27:42;;;;;;;2.80;2.60;;;;;;;;;;5096605;28;20219;-81
2022/04/19 02:30:14;;;;;;;2.40;2.20;;;;;;;;;;5096271;28;20249;-81
2022/04/19 02:32:42;;;;;;;2.42;2.22;;;;;;;;;;5096121;28;20659;-80
2022/04/19 02:35:10;;;;;;;2.47;2.20;;;;;;;;;;5096295;28;20250;-79
2022/04/19 02:37:38;;;;;;;3.08;2.75;;;;;;;;;;5096353;28;20196;-81
2022/04/19 02:40:07;;;;;;;5.10;2.58;;;;;;;;;;5095861;28;20226;-81
2022/04/19 02:42:36;;;;;;;2.78;2.58;;;;;;;;;;5095341;28;20699;-80
2022/04/19 02:45:04;;;;;;;2.60;2.40;;;;;;;;;;5096063;28;20200;-81
2022/04/19 02:47:32;;;;;;;2.55;2.35;;;;;;;;;;5095892;28;20208;-81
2022/04/19 02:50:00;;;;;;;3.08;2.85;;;;;;;;;;5095825;28;20212;-81
2022/04/19 02:52:27;;;;;;;2.45;2.25;;;;;;;;;;5095648;28;20228;-81
2022/04/19 02:54:54;;;;;;;3.25;3.00;;;;;;;;;;5095254;28;20624;-81
2022/04/19 02:57:22;;;;;;;2.67;2.28;;;;;;;;;;5095346;28;20571;-81
2022/04/19 02:59:50;;;;;;;4.47;3.13;;;;;;;;;;5095941;28;20223;-81
2022/04/19 03:02:18;;;;;;;2.15;2.05;;;;;;;;;;5095630;28;20266;-81
2022/04/19 03:04:47;;;;;;;2.50;2.30;;;;;;;;;;5095756;28;20200;-81
2022/04/19 03:07:14;;;;;;;2.67;2.47;;;;;;;;;;5095787;28;20203;-82
2022/04/19 03:09:42;;;;;;;2.50;2.30;;;;;;;;;;5095700;28;20204;-80
2022/04/19 03:12:11;;;;;;;2.50;2.30;;;;;;;;;;5095308;28;20719;-82
2022/04/19 03:14:39;;;;;;;3.05;2.35;;;;;;;;;;5095494;28;20196;-82
2022/04/19 03:17:06;;;;;;;2.47;2.10;;;;;;;;;;5095732;28;20207;-81
2022/04/19 03:19:34;;;;;;;2.20;2.10;;;;;;;;;;5096190;28;20260;-84
2022/04/19 03:22:03;;;;;;;2.50;2.30;;;;;;;;;;5095269;28;20220;-86
2022/04/19 03:29:59;;;;;;;2.20;2.10;;;;;;;;;;5093561;28;20692;-84
2022/04/19 03:32:27;;;;;;;2.00;1.90;;;;;;;;;;5093197;28;20216;-85
2022/04/19 03:34:54;;;;;;;2.50;2.30;;;;;;;;;;5092983;28;20660;-85
2022/04/19 03:37:23;;;;;;;2.95;2.75;;;;;;;;;;5093322;28;20206;-84
2022/04/19 03:39:50;;;;;;;2.65;2.40;;;;;;;;;;5092975;28;20220;-85
2022/04/19 03:42:17;;;;;;;2.13;2.03;;;;;;;;;;5092586;28;20219;-85
2022/04/19 03:44:44;;;;;;;2.92;2.72;;;;;;;;;;5092825;28;20207;-85
2022/04/19 03:47:12;;;;;;;2.83;2.63;;;;;;;;;;5093045;28;20208;-85
2022/04/19 03:49:41;;;;;;;2.20;2.00;;;;;;;;;;5093057;28;20203;-85
2022/04/19 03:52:10;;;;;;;2.78;2.58;;;;;;;;;;5093604;28;20220;-84
2022/04/19 03:54:38;;;;;;;2.10;2.00;;;;;;;;;;5093730;28;20572;-85
2022/04/19 03:57:08;;;;;;;2.50;2.33;;;;;;;;;;5093185;28;20200;-85
2022/04/19 03:59:38;;;;;;;2.13;2.03;;;;;;;;;;5093592;28;20224;-84
2022/04/19 04:02:06;;;;;;;2.33;2.17;;;;;;;;;;5093151;28;20220;-85
2022/04/19 04:04:35;;;;;;;3.08;2.78;;;;;;;;;;5093215;28;20652;-85
2022/04/19 04:07:03;;;;;;;2.50;1.88;;;;;;;;;;5093707;28;20290;-85
2022/04/19 04:09:32;;;;;;;2.28;2.10;;;;;;;;;;5093550;28;20208;-85
2022/04/19 04:12:02;;;;;;;2.35;2.15;;;;;;;;;;5093048;28;20220;-86
2022/04/19 04:14:30;;;;;;;2.05;1.95;;;;;;;;;;5092878;28;20657;-85
2022/04/19 04:16:57;;;;;;;2.17;1.85;;;;;;;;;;5092775;28;20196;-85
2022/04/19 04:19:25;;;;;;;2.20;2.10;;;;;;;;;;5092644;28;20599;-86
2022/04/19 04:21:52;;;;;;;2.42;2.22;;;;;;;;;;5093126;28;20223;-84
2022/04/19 04:24:19;;;;;;;1.95;1.83;;;;;;;;;;5095533;28;20204;-85
2022/04/19 04:26:47;;;;;;;2.47;2.28;;;;;;;;;;5093087;28;20203;-85
2022/04/19 04:29:16;;;;;;;2.80;2.60;;;;;;;;;;5095106;28;20200;-86
2022/04/19 04:31:43;;;;;;;1.90;1.80;;;;;;;;;;5095653;28;20221;-84
2022/04/19 04:34:11;;;;;;;3.08;2.88;;;;;;;;;;5097281;28;20200;-85
2022/04/19 04:36:38;;;;;;;2.63;2.42;;;;;;;;;;5095909;28;20193;-85
2022/04/19 04:39:05;;;;;;;5.85;3.15;;;;;;;;;;5095636;28;20642;-85
2022/04/19 04:41:33;;;;;;;2.67;2.45;;;;;;;;;;5095380;28;20227;-85
2022/04/19 04:44:00;;;;;;;2.78;2.55;;;;;;;;;;5095424;28;20188;-86
2022/04/19 04:51:58;;;;;;;2.50;2.30;;;;;;;;;;5107939;22;20599;-83
2022/04/19 04:54:25;;;;;;;2.15;2.00;;;;;;;;;;5114368;28;20301;-82
2022/04/19 04:56:53;;;;;;;2.47;2.22;;;;;;;;;;5113749;28;20200;-83
2022/04/19 04:59:20;;;;;;;2.90;2.60;;;;;;;;;;5113336;28;20645;-83
2022/04/19 05:01:49;;;;;;;2.67;2.10;;;;;;;;;;5113405;28;20220;-83
2022/04/19 05:04:16;;;;;;;2.20;2.10;;;;;;;;;;5113307;28;20288;-83
2022/04/19 05:06:43;;;;;;;2.88;2.55;;;;;;;;;;5115433;28;20207;-83
2022/04/19 05:09:10;;;;;;;2.25;2.08;;;;;;;;;;5117819;28;20192;-83
2022/04/19 05:11:39;;;;;;;2.33;2.13;;;;;;;;;;5117194;28;20196;-83
2022/04/19 05:14:07;;;;;;;2.05;1.95;;;;;;;;;;5117942;28;20280;-85
2022/04/19 05:16:35;;;;;;;2.42;2.22;;;;;;;;;;5117489;28;20579;-83
2022/04/19 05:19:04;;;;;;;2.30;2.20;;;;;;;;;;5116008;28;20203;-78
2022/04/19 05:21:31;;;;;;;2.40;2.20;;;;;;;;;;5096777;28;20220;-77
2022/04/19 05:23:59;;;;;;;2.13;1.90;;;;;;;;;;5096702;28;20217;-79
2022/04/19 05:26:28;;;;;;;2.30;2.10;;;;;;;;;;5095782;28;20619;-79
2022/04/19 05:28:55;;;;;;;2.33;2.17;;;;;;;;;;5087415;28;20204;-79
2022/04/19 05:31:23;;;;;;;2.47;2.03;;;;;;;;;;5090848;28;20205;-80
2022/04/19 05:33:51;;;;;;;1.70;1.60;;;;;;;;;;5084740;28;20283;-80
2022/04/19 05:36:19;;;;;;;1.90;1.80;;;;;;;;;;5077206;28;20250;-79
2022/04/19 05:38:52;;;;;;;2.85;2.45;;;;;;;;;;5076318;28;20205;-79
2022/04/19 05:41:20;;;;;;;2.85;2.25;;;;;;;;;;5079787;28;20648;-77
2022/04/19 05:43:47;;;;;;;1.80;1.70;;;;;;;;;;5082217;28;20220;-79
2022/04/19 05:46:16;;;;;;;2.35;2.15;;;;;;;;;;5081525;28;20204;-78
2022/04/19 05:48:43;;;;;;;1.73;1.63;;;;;;;;;;5078478;28;20213;-79
2022/04/19 05:51:11;;;;;;;2.40;2.20;;;;;;;;;;5084687;28;20209;-79
2022/04/19 05:53:39;;;;;;;2.03;1.92;;;;;;;;;;5077491;28;20258;-79
2022/04/19 05:56:07;;;;;;;1.67;1.58;;;;;;;;;;5075648;28;20205;-79
2022/04/19 05:58:34;;;;;;;1.60;1.48;;;;;;;;;;5093804;28;20204;-78
2022/04/19 06:01:02;;;;;;;1.52;1.42;;;;;;;;;;5083593;28;20231;-78
2022/04/19 06:06:15;;;;;;;1.52;1.42;;;;;;;;;;5077178;28;20235;-79
2022/04/19 06:08:44;;;;;;;2.33;2.13;;;;;;;;;;5077048;28;20644;-79
2022/04/19 06:11:12;;;;;;;1.85;1.75;;;;;;;;;;5076720;28;20255;-80
2022/04/19 06:13:40;;;;;;;2.28;2.15;;;;;;;;;;5075934;28;20209;-80
2022/04/19 06:16:08;;;;;;;2.60;2.40;;;;;;;;;;5076388;28;20233;-79
2022/04/19 06:18:35;;;;;;;2.25;2.05;;;;;;;;;;5076034;28;20201;-80
2022/04/19 06:21:04;;;;;;;1.95;1.85;;;;;;;;;;5084753;28;20224;-80
2022/04/19 06:23:32;;;;;;;3.40;2.70;;;;;;;;;;5077831;28;20304;-80
2022/04/19 06:26:01;;;;;;;2.38;2.17;;;;;;;;;;5076283;28;20228;-81
2022/04/19 06:28:28;;;;;;;2.10;2.00;;;;;;;;;;5091770;28;20262;-80
2022/04/19 06:30:56;;;;;;;2.15;1.90;;;;;;;;;;5081029;28;20348;-80
2022/04/19 06:33:23;;;;;;;2.65;2.45;;;;;;;;;;5075325;28;20623;-80
2022/04/19 06:35:50;;;;;;;2.00;1.90;;;;;;;;;;5075670;28;20282;-79
2022/04/19 06:38:17;;;;;;;3.33;2.25;;;;;;;;;;5075392;28;20208;-80
2022/04/19 06:40:45;;;;;;;4.03;3.63;;;;;;;;;;5075395;28;20212;-79
2022/04/19 06:43:13;;;;;;;2.67;2.42;;;;;;;;;;5075099;28;20201;-80
2022/04/19 06:45:43;;;;;;;2.42;2.03;;;;;;;;;;5074923;28;20654;-80
2022/04/19 06:48:11;;;;;;;2.72;2.53;;;;;;;;;;5075683;28;20205;-80
2022/04/19 06:50:38;;;;;;;3.30;3.03;;;;;;;;;;5081325;28;20249;-80
2022/04/19 06:53:06;;;;;;;2.30;2.00;;;;;;;;;;5074945;28;20221;-80
2022/04/19 06:55:34;;;;;;;3.35;2.70;;;;;;;;;;5075399;28;20286;-80
2022/04/19 06:58:01;;;;;;;2.88;2.67;;;;;;;;;;5087781;28;20208;-79
2022/04/19 07:00:30;;;;;;;2.75;2.03;;;;;;;;;;5094110;28;20204;-80
2022/04/19 07:02:57;;;;;;;3.92;3.45;;;;;;;;;;5093232;28;20225;-79
2022/04/19 07:05:24;;;;;;;2.72;2.53;;;;;;;;;;5093596;28;20700;-79
2022/04/19 07:07:51;;;;;;;2.50;2.30;;;;;;;;;;5093769;28;20211;-79
2022/04/19 07:10:19;;;;;;;3.40;3.05;;;;;;;;;;5094241;28;20208;-79
2022/04/19 07:12:47;;;;;;;3.30;3.00;;;;;;;;;;5093776;28;20200;-80
2022/04/19 07:15:15;;;;;;;4.43;3.38;;;;;;;;;;5094381;28;20278;-79
2022/04/19 07:17:43;;;;;;;3.70;2.80;;;;;;;;;;5093884;28;20207;-80
2022/04/19 07:28:26;;;;;;;3.05;2.45;;;;;;;;;;5091025;28;20203;-80
2022/04/19 07:30:53;;;;;;;2.60;2.40;;;;;;;;;;5094805;28;20204;-79
2022/04/19 07:33:21;;;;;;;3.20;2.90;;;;;;;;;;5094949;28;20257;-79
2022/04/19 07:35:51;;;;;;;3.22;2.75;;;;;;;;;;5094056;28;20734;-79
2022/04/19 07:38:18;;;;;;;2.17;2.03;;;;;;;;;;5093978;28;20675;-79
2022/04/19 07:40:46;;;;;;;2.80;2.60;;;;;;;;;;5094227;28;20298;-78
2022/04/19 07:43:13;;;;;;;1.98;1.77;;;;;;;;;;5093208;28;20220;-79
2022/04/19 07:45:40;;;;;;;2.70;2.45;;;;;;;;;;5094701;28;20224;-79
2022/04/19 07:48:08;;;;;;;2.22;2.03;;;;;;;;;;5093895;28;20208;-80
2022/04/19 07:50:37;;;;;;;3.03;2.30;;;;;;;;;;5084885;28;20208;-79
2022/04/19 07:53:05;;;;;;;3.13;2.85;;;;;;;;;;5074527;28;20299;-79
2022/04/19 07:55:32;;;;;;;3.00;2.75;;;;;;;;;;5075196;28;20254;-79
2022/04/19 07:58:00;;;;;;;4.00;3.53;;;;;;;;;;5087223;28;20773;-79
2022/04/19 08:00:28;;;;;;;3.08;2.72;;;;;;;;;;5074350;28;20205;-78
2022/04/19 08:02:56;;;;;;;3.35;3.05;;;;;;;;;;5073700;28;20224;-80
2022/04/19 08:05:23;;;;;;;2.33;2.13;;;;;;;;;;5074258;28;20263;-79
2022/04/19 08:07:52;;;;;;;2.33;2.17;;;;;;;;;;5073647;28;20205;-79
2022/04/19 08:10:20;;;;;;;2.05;1.83;;;;;;;;;;5073756;28;20200;-79
2022/04/19 08:12:48;;;;;;;2.22;2.03;;;;;;;;;;5073618;28;20204;-79
2022/04/19 08:15:15;;;;;;;2.40;2.20;;;;;;;;;;5073135;28;20232;-79
2022/04/19 08:17:42;;;;;;;2.25;2.10;;;;;;;;;;5073763;28;20589;-78
2022/04/19 08:20:13;;;;;;;2.20;2.00;;;;;;;;;;5075294;28;20590;-79
2022/04/19 08:22:41;;;;;;;2.50;2.28;;;;;;;;;;5076838;28;20236;-79
2022/04/19 08:25:11;;;;;;;2.20;2.00;;;;;;;;;;5083397;28;20234;-79
2022/04/19 08:27:42;;;;;;;1.80;1.70;;;;;;;;;;5092043;28;20200;-79
2022/04/19 08:30:10;;;;;;;2.35;2.08;;;;;;;;;;5094159;28;20210;-80
2022/04/19 08:32:38;;;;;;;3.78;2.08;;;;;;;;;;5095528;28;20200;-79
2022/04/19 08:35:07;;;;;;;2.80;2.20;;;;;;;;;;5096420;28;20232;-80
2022/04/19 08:37:35;;;;;;;1.90;1.75;;;;;;;;;;5095915;28;20291;-80
2022/04/19 08:40:03;;;;;;;2.50;2.30;;;;;;;;;;5096144;28;20218;-79
2022/04/19 08:42:32;;;;;;;2.72;2.47;;;;;;;;;;5099339;28;20652;-80
2022/04/19 08:45:02;;;;;;;2.22;2.05;;;;;;;;;;5100305;28;20235;-80
2022/04/19 08:47:30;;;;;;;2.08;1.88;;;;;;;;;;5099796;28;20239;-81
2022/04/19 08:49:58;;;;;;;2.00;1.90;;;;;;;;;;5095050;28;20628;-81
2022/04/19 08:52:25;;;;;;;1.90;1.70;;;;;;;;;;5079105;28;20208;-81
2022/04/19 08:57:38;;;;;;;1.95;1.85;;;;;;;;;;5064359;28;20771;-79
2022/04/19 09:00:08;;;;;;;1.60;1.50;;;;;;;;;;5078937;28;20303;-80
2022/04/19 09:02:37;;;;;;;1.65;1.55;;;;;;;;;;5078893;28;20225;-80
2022/04/19 09:05:16;;;;;;;1.95;1.85;;;;;;;;;;5078975;28;20312;-80
2022/04/19 09:07:45;;;;;;;1.45;1.38;;;;;;;;;;5079465;28;20306;-81
2022/04/19 09:10:15;;;;;;;2.08;1.38;;;;;;;;;;5078886;28;20201;-80
2022/04/19 09:13:02;;;;;;;1.90;1.80;;;;;;;;;;5078283;28;20232;-80
2022/04/19 09:15:37;;;;;;;1.50;1.40;;;;;;;;;;5077509;28;20231;-80
2022/04/19 09:18:06;;;;;;;1.35;1.25;;;;;;;;;;5077349;28;20287;-79
2022/04/19 09:20:33;;;;;;;1.40;1.30;;;;;;;;;;5079202;28;20201;-79
2022/04/19 09:23:04;;;;;;;1.42;1.33;;;;;;;;;;5078373;28;20229;-80
2022/04/19 09:25:32;;;;;;;2.17;1.98;;;;;;;;;;5078140;28;20225;-81
2022/04/19 09:28:02;;;;;;;1.30;1.20;;;;;;;;;;5091605;28;20208;-81
2022/04/19 09:30:31;;;;;;;1.20;1.20;;;;;;;;;;5078087;28;20203;-80
2022/04/19 09:33:10;;;;;;;1.10;1.10;;;;;;;;;;5078491;28;20244;-79
2022/04/19 09:35:40;;;;;;;1.27;1.17;;;;;;;;;;5078852;28;20228;-80
2022/04/19 09:38:08;;;;;;;1.45;1.33;;;;;;;;;;5079641;28;20209;-80
2022/04/19 09:40:38;;;;;;;1.45;1.35;;;;;;;;;;5078927;28;20216;-80
2022/04/19 09:43:12;;;;;;;1.50;1.40;;;;;;;;;;5078411;28;20232;-80
2022/04/19 09:45:54;;;;;;;1.67;1.58;;;;;;;;;;5077944;28;20228;-80
2022/04/19 09:48:24;;;;;;;1.20;1.10;;;;;;;;;;5077511;28;20205;-80
2022/04/19 09:50:58;;;;;;;1.00;1.00;;;;;;;;;;5084214;28;20216;-80
2022/04/19 09:53:27;;;;;;;0.85;0.85;;;;;;;;;;5098826;28;20215;-80
2022/04/19 09:55:56;;;;;;;1.52;0.93;;;;;;;;;;5079071;28;20717;-79
2022/04/19 09:58:26;;;;;;;1.25;1.10;;;;;;;;;;5093177;28;20204;-80
2022/04/19 10:00:53;;;;;;;1.02;0.90;;;;;;;;;;5076488;28;20200;-79
2022/04/19 10:09:06;;;;;;;0.90;0.90;;;;;;;;;;5076080;28;20208;-81
2022/04/19 10:11:33;;;;;;;0.98;0.98;;;;;;;;;;5076351;28;20262;-81
2022/04/19 10:14:02;;;;;;;0.77;0.77;;;;;;;;;;5077758;28;20225;-81
2022/04/19 10:16:31;;;;;;;0.93;0.93;;;;;;;;;;5077441;28;20209;-80
2022/04/19 10:18:59;;;;;;;0.90;0.90;;;;;;;;;;5076355;28;20240;-80
2022/04/19 10:21:31;;;;;;;1.90;1.20;;;;;;;;;;5076436;28;20229;-80
2022/04/19 10:24:11;;;;;;;1.27;0.70;;;;;;;;;;5075503;28;20224;-81
2022/04/19 10:26:47;;;;;;;1.00;1.00;;;;;;;;;;5077128;28;20211;-81
2022/04/19 10:29:21;;;;;;;1.45;1.35;;;;;;;;;;5078591;28;20213;-80
2022/04/19 10:31:58;;;;;;;0.88;0.88;;;;;;;;;;5075693;28;20211;-81
2022/04/19 10:34:27;;;;;;;1.00;0.80;;;;;;;;;;5076065;28;20228;-80
2022/04/19 10:36:57;;;;;;;0.90;0.77;;;;;;;;;;5095384;28;20207;-81
2022/04/19 10:39:32;;;;;;;0.80;0.80;;;;;;;;;;5096238;28;20585;-81
2022/04/19 10:42:01;;;;;;;0.70;0.70;;;;;;;;;;5087839;28;20239;-81
2022/04/19 10:44:36;;;;;;;0.80;0.80;;;;;;;;;;5075387;28;20684;-81
2022/04/19 10:47:11;;;;;;;0.70;0.70;;;;;;;;;;5075633;28;20207;-81
2022/04/19 10:50:00;;;;;;;0.63;0.63;;;;;;;;;;5079531;28;20580;-80
2022/04/19 10:52:47;;;;;;;0.65;0.65;;;;;;;;;;5075484;28;20213;-81
2022/04/19 10:55:22;;;;;;;0.55;0.55;;;;;;;;;;5075682;28;20271;-82
2022/04/19 10:58:08;;;;;;;0.60;0.60;;;;;;;;;;5086297;28;20334;-82
2022/04/19 11:00:45;;;;;;;0.60;0.60;;;;;;;;;;5095795;28;20212;-82
2022/04/19 11:03:15;;;;;;;0.60;0.60;;;;;;;;;;5075838;28;20211;-81
2022/04/19 11:05:44;;;;;;;2.60;0.90;;;;;;;;;;5075786;28;20235;-82
2022/04/19 11:08:37;;;;;;;0.80;0.80;;;;;;;;;;5075795;28;20204;-81
2022/04/19 11:11:26;;;;;;;0.90;0.90;;;;;;;;;;5073083;28;20201;-81
2022/04/19 11:14:20;;;;;;;0.73;0.73;;;;;;;;;;5075308;28;20204;-81
2022/04/19 11:16:51;;;;;;;0.70;0.70;;;;;;;;;;5075027;28;20228;-81
2022/04/19 11:19:22;;;;;;;0.70;0.70;;;;;;;;;;5081318;28;20200;-81
2022/04/19 11:21:58;;;;;;;0.70;0.70;;;;;;;;;;5078550;28;20204;-81
2022/04/19 11:25:03;;;;;;;0.90;0.90;;;;;;;;;;5076380;28;20248;-80
2022/04/19 11:28:27;;;;;;;0.70;0.70;;;;;;;;;;5085242;28;20208;-81
2022/04/19 11:31:15;;;;;;;0.57;0.57;;;;;;;;;;5095772;28;20216;-81
2022/04/19 11:33:44;;;;;;;0.43;0.43;;;;;;;;;;5094874;28;20208;-80
2022/04/19 11:36:15;;;;;;;0.43;0.43;;;;;;;;;;5094048;28;20239;-80
2022/04/19 11:38:46;;;;;;;0.57;0.57;;;;;;;;;;5094934;28;20200;-80
2022/04/19 11:46:58;;;;;;;0.60;0.60;;;;;;;;;;5073657;28;20203;-80
2022/04/19 11:49:34;;;;;;;0.63;0.63;;;;;;;;;;5082712;28;20208;-80
2022/04/19 11:52:03;;;;;;;0.60;0.60;;;;;;;;;;5074167;28;20246;-80
2022/04/19 11:54:32;;;;;;;0.82;0.80;;;;;;;;;;5074139;28;20664;-80
2022/04/19 11:57:01;;;;;;;0.60;0.60;;;;;;;;;;5078630;28;20204;-80
2022/04/19 11:59:30;;;;;;;0.70;0.70;;;;;;;;;;5094937;28;20238;-82
2022/04/19 12:01:59;;;;;;;0.82;0.82;;;;;;;;;;5086102;28;20645;-82
2022/04/19 12:04:28;;;;;;;0.80;0.68;;;;;;;;;;5075073;28;20319;-80
2022/04/19 12:06:57;;;;;;;0.47;0.47;;;;;;;;;;5076588;28;20204;-80
2022/04/19 12:09:25;;;;;;;0.50;0.50;;;;;;;;;;5075963;28;20587;-80
2022/04/19 12:11:53;;;;;;;0.50;0.50;;;;;;;;;;5074851;28;20205;-80
2022/04/19 12:14:28;;;;;;;0.50;0.50;;;;;;;;;;5074764;28;20221;-81
2022/04/19 12:17:00;;;;;;;0.65;0.65;;;;;;;;;;5074294;28;20230;-81
2022/04/19 12:19:38;;;;;;;0.65;0.65;;;;;;;;;;5075581;28;20205;-81
2022/04/19 12:22:20;;;;;;;0.43;0.43;;;;;;;;;;5074334;28;20209;-80
2022/04/19 12:24:53;;;;;;;0.50;0.50;;;;;;;;;;5074769;28;20233;-82
2022/04/19 12:27:25;;;;;;;0.57;0.57;;;;;;;;;;5081370;28;20261;-79
2022/04/19 12:29:59;;;;;;;0.50;0.50;;;;;;;;;;5084527;28;20211;-81
2022/04/19 12:32:27;;;;;;;0.50;0.50;;;;;;;;;;5074034;28;20209;-82
2022/04/19 12:35:11;;;;;;;0.50;0.50;;;;;;;;;;5074258;28;20221;-81
2022/04/19 12:37:39;;;;;;;0.40;0.40;;;;;;;;;;5076780;28;20224;-81
2022/04/19 12:40:07;;;;;;;0.40;0.40;;;;;;;;;;5074694;28;20303;-80
2022/04/19 12:42:50;;;;;;;0.60;0.60;;;;;;;;;;5073434;28;20209;-80
2022/04/19 12:45:18;;;;;;;0.50;0.50;;;;;;;;;;5074308;28;20229;-80
2022/04/19 12:47:50;;;;;;;0.43;0.43;;;;;;;;;;5074168;28;20239;-81
2022/04/19 12:50:20;;;;;;;1.20;1.10;;;;;;;;;;5077345;28;20205;-80
2022/04/19 12:52:48;;;;;;;1.02;0.90;;;;;;;;;;5073934;28;20236;-80
2022/04/19 12:55:16;;;;;;;1.92;1.52;;;;;;;;;;5073643;28;20217;-80
2022/04/19 12:57:45;;;;;;;0.80;0.80;;;;;;;;;;5082930;28;20291;-80
2022/04/19 13:00:14;;;;;;;0.70;0.70;;;;;;;;;;5093295;28;20208;-81
2022/04/19 13:02:44;;;;;;;0.70;0.70;;;;;;;;;;5092181;28;20218;-80
2022/04/19 13:05:11;;;;;;;2.05;1.10;;;;;;;;;;5092855;28;20298;-79
2022/04/19 13:13:21;;;;;;;0.90;0.90;;;;;;;;;;5029449;28;20233;-80
2022/04/19 13:15:48;;;;;;;0.52;0.52;;;;;;;;;;5063030;28;20232;-81
2022/04/19 13:18:16;;;;;;;0.70;0.70;;;;;;;;;;5074342;28;20205;-79
2022/04/19 13:20:43;;;;;;;0.75;0.75;;;;;;;;;;5078766;28;20202;-80
2022/04/19 13:23:13;;;;;;;0.80;0.80;;;;;;;;;;5076014;28;20208;-80
2022/04/19 13:25:40;;;;;;;0.80;0.80;;;;;;;;;;5076192;28;20228;-83
2022/04/19 13:28:08;;;;;;;0.90;0.90;;;;;;;;;;5089805;28;20295;-80
2022/04/19 13:30:38;;;;;;;0.93;0.93;;;;;;;;;;5097650;28;20227;-80
2022/04/19 13:33:06;;;;;;;1.00;1.00;;;;;;;;;;5097110;28;20251;-80
2022/04/19 13:35:33;;;;;;;0.60;0.60;;;;;;;;;;5097018;28;20246;-80
2022/04/19 13:40:46;;;;;;;0.82;0.82;;;;;;;;;;5099509;28;20211;-81
2022/04/19 13:43:14;;;;;;;1.00;1.00;;;;;;;;;;5078720;28;20651;-80
2022/04/19 13:45:41;;;;;;;0.80;0.80;;;;;;;;;;5077065;28;20229;-81
2022/04/19 13:48:09;;;;;;;0.70;0.70;;;;;;;;;;5076714;28;20205;-80
2022/04/19 13:50:36;;;;;;;0.80;0.80;;;;;;;;;;5079476;28;20205;-80
2022/04/19 13:53:04;;;;;;;0.60;0.60;;;;;;;;;;5076973;28;20319;-81
2022/04/19 13:55:31;;;;;;;0.90;0.90;;;;;;;;;;5078252;28;20278;-81
2022/04/19 13:58:00;;;;;;;0.65;0.65;;;;;;;;;;5089273;28;20253;-81
2022/04/19 14:00:28;;;;;;;0.63;0.63;;;;;;;;;;5078192;28;20284;-81
2022/04/19 14:02:55;;;;;;;0.50;0.50;;;;;;;;;;5076253;28;20209;-80
2022/04/19 14:05:23;;;;;;;0.70;0.70;;;;;;;;;;5077285;28;20278;-81
2022/04/19 14:07:50;;;;;;;0.95;0.93;;;;;;;;;;5076756;28;20212;-81
2022/04/19 14:10:17;;;;;;;0.98;0.90;;;;;;;;;;5076305;28;20204;-81
2022/04/19 14:12:45;;;;;;;0.63;0.63;;;;;;;;;;5095014;28;20691;-80
2022/04/19 14:15:13;;;;;;;1.42;0.90;;;;;;;;;;5076814;28;20705;-82
2022/04/19 14:17:41;;;;;;;0.80;0.80;;;;;;;;;;5076936;28;20211;-82
2022/04/19 14:20:09;;;;;;;0.90;0.90;;;;;;;;;;5081171;28;20208;-82
2022/04/19 14:22:36;;;;;;;0.82;0.82;;;;;;;;;;5078547;28;20258;-82
2022/04/19 14:25:04;;;;;;;0.80;0.80;;;;;;;;;;5078921;28;20240;-81
2022/04/19 14:27:31;;;;;;;0.70;0.70;;;;;;;;;;5098324;28;20212;-81
2022/04/19 14:35:30;;;;;;;0.98;0.98;;;;;;;;;;5079331;28;20301;-81
2022/04/19 14:37:57;;;;;;;0.80;0.80;;;;;;;;;;5078335;28;20239;-81
2022/04/19 14:40:24;;;;;;;0.70;0.70;;;;;;;;;;5079183;28;20680;-81
2022/04/19 14:42:52;;;;;;;0.77;0.77;;;;;;;;;;5089795;28;20208;-81
2022/04/19 14:45:19;;;;;;;1.30;1.30;;;;;;;;;;5099925;28;20228;-81
2022/04/19 14:47:47;;;;;;;0.68;0.68;;;;;;;;;;5098109;28;20208;-81
2022/04/19 14:50:15;;;;;;;0.80;0.80;;;;;;;;;;5090140;28;20208;-81
2022/04/19 14:52:42;;;;;;;0.88;0.88;;;;;;;;;;5085864;28;20614;-81
2022/04/19 14:55:09;;;;;;;0.77;0.77;;;;;;;;;;5078925;28;20232;-81
2022/04/19 14:57:38;;;;;;;0.73;0.73;;;;;;;;;;5091410;28;20226;-81
2022/04/19 15:00:06;;;;;;;0.93;0.93;;;;;;;;;;5099272;28;20210;-81
2022/04/19 15:02:34;;;;;;;0.80;0.80;;;;;;;;;;5097444;28;20212;-80
2022/04/19 15:05:05;;;;;;;1.10;1.10;;;;;;;;;;5098346;28;20224;-81
2022/04/19 15:07:32;;;;;;;1.88;1.48;;;;;;;;;;5097070;28;20734;-80
2022/04/19 15:10:00;;;;;;;0.90;0.90;;;;;;;;;;5088262;28;20677;-81
2022/04/19 15:12:28;;;;;;;0.63;0.63;;;;;;;;;;5077952;28;20205;-81
2022/04/19 15:14:55;;;;;;;0.95;0.90;;;;;;;;;;5076878;28;20618;-81
2022/04/19 15:17:23;;;;;;;0.73;0.73;;;;;;;;;;5080059;28;20232;-81
2022/04/19 15:19:50;;;;;;;1.15;1.00;;;;;;;;;;5082898;28;20731;-81
2022/04/19 15:22:19;;;;;;;1.00;0.90;;;;;;;;;;5078192;28;20205;-80
2022/04/19 15:24:47;;;;;;;0.65;0.65;;;;;;;;;;5079145;28;20232;-80
2022/04/19 15:27:16;;;;;;;0.82;0.82;;;;;;;;;;5084987;28;20270;-81
2022/04/19 15:29:43;;;;;;;1.15;1.15;;;;;;;;;;5097987;28;20552;-81
2022/04/19 15:32:13;;;;;;;0.70;0.70;;;;;;;;;;5097065;28;20279;-81
2022/04/19 15:34:41;;;;;;;1.77;0.98;;;;;;;;;;5098473;28;20224;-82
2022/04/19 15:37:08;;;;;;;1.10;1.00;;;;;;;;;;5096999;28;20222;-82
2022/04/19 15:39:37;;;;;;;1.48;1.38;;;;;;;;;;5096248;28;20257;-81
2022/04/19 15:42:05;;;;;;;1.02;1.02;;;;;;;;;;5094258;28;20709;-80
2022/04/19 15:44:32;;;;;;;0.80;0.80;;;;;;;;;;5095473;28;20587;-80
2022/04/19 15:47:00;;;;;;;1.10;1.10;;;;;;;;;;5077347;28;20217;-80
2022/04/19 15:49:27;;;;;;;1.13;1.00;;;;;;;;;;5075753;28;20209;-80